sensor_id;sensor_type;location;lat;lon;timestamp;P1;durP1;ratioP1;P2;durP2;ratioP2
6037;SDS011;3047;42.600;23.470;2023-04-07T00:02:16;0.43;;;0.43;;
6037;SDS011;3047;42.600;23.470;2023-04-07T00:04:44;7.70;;;1.17;;
6037;SDS011;3047;42.600;23.470;2023-04-07T00:07:10;0.60;;;0.60;;
6037;SDS011;3047;42.600;23.470;2023-04-07T00:09:37;0.63;;;0.63;;
6037;SDS011;3047;42.600;23.470;2023-04-07T00:12:04;0.83;;;0.83;;
6037;SDS011;3047;42.600;23.470;2023-04-07T00:14:31;0.77;;;0.77;;
6037;SDS011;3047;42.600;23.470;2023-04-07T00:16:57;1.03;;;1.03;;
6037;SDS011;3047;42.600;23.470;2023-04-07T00:19:24;0.80;;;0.80;;
6037;SDS011;3047;42.600;23.470;2023-04-07T00:21:52;0.50;;;0.50;;
6037;SDS011;3047;42.600;23.470;2023-04-07T00:24:19;0.70;;;0.70;;
6037;SDS011;3047;42.600;23.470;2023-04-07T00:26:46;0.40;;;0.40;;
6037;SDS011;3047;42.600;23.470;2023-04-07T00:29:12;0.97;;;0.93;;
6037;SDS011;3047;42.600;23.470;2023-04-07T00:31:39;0.60;;;0.60;;
6037;SDS011;3047;42.600;23.470;2023-04-07T00:34:06;0.53;;;0.53;;
6037;SDS011;3047;42.600;23.470;2023-04-07T00:36:32;1.00;;;1.00;;
6037;SDS011;3047;42.600;23.470;2023-04-07T00:39:00;0.63;;;0.63;;
6037;SDS011;3047;42.600;23.470;2023-04-07T00:41:27;3.50;;;1.57;;
6037;SDS011;3047;42.600;23.470;2023-04-07T00:43:54;0.50;;;0.50;;
6037;SDS011;3047;42.600;23.470;2023-04-07T00:46:21;0.50;;;0.50;;
6037;SDS011;3047;42.600;23.470;2023-04-07T00:48:48;1.03;;;0.80;;
6037;SDS011;3047;42.600;23.470;2023-04-07T00:51:15;1.07;;;1.07;;
6037;SDS011;3047;42.600;23.470;2023-04-07T00:53:41;0.50;;;0.50;;
6037;SDS011;3047;42.600;23.470;2023-04-07T00:56:10;0.77;;;0.77;;
6037;SDS011;3047;42.600;23.470;2023-04-07T00:58:37;0.73;;;0.73;;
6037;SDS011;3047;42.600;23.470;2023-04-07T01:01:06;0.50;;;0.50;;
6037;SDS011;3047;42.600;23.470;2023-04-07T01:03:43;0.70;;;0.70;;
6037;SDS011;3047;42.600;23.470;2023-04-07T01:06:15;1.10;;;1.10;;
6037;SDS011;3047;42.600;23.470;2023-04-07T01:08:47;0.63;;;0.63;;
6037;SDS011;3047;42.600;23.470;2023-04-07T01:11:21;0.67;;;0.67;;
6037;SDS011;3047;42.600;23.470;2023-04-07T01:13:51;0.73;;;0.73;;
6037;SDS011;3047;42.600;23.470;2023-04-07T01:16:23;1.47;;;1.40;;
6037;SDS011;3047;42.600;23.470;2023-04-07T01:18:56;1.10;;;1.07;;
6037;SDS011;3047;42.600;23.470;2023-04-07T01:21:27;0.87;;;0.87;;
6037;SDS011;3047;42.600;23.470;2023-04-07T01:24:00;0.53;;;0.53;;
6037;SDS011;3047;42.600;23.470;2023-04-07T01:26:39;0.53;;;0.53;;
6037;SDS011;3047;42.600;23.470;2023-04-07T01:31:51;2.83;;;1.13;;
6037;SDS011;3047;42.600;23.470;2023-04-07T01:34:21;0.90;;;0.90;;
6037;SDS011;3047;42.600;23.470;2023-04-07T01:36:51;1.40;;;1.00;;
6037;SDS011;3047;42.600;23.470;2023-04-07T01:39:19;0.57;;;0.57;;
6037;SDS011;3047;42.600;23.470;2023-04-07T01:41:46;0.67;;;0.67;;
6037;SDS011;3047;42.600;23.470;2023-04-07T01:44:17;1.03;;;1.03;;
6037;SDS011;3047;42.600;23.470;2023-04-07T01:46:46;3.13;;;1.27;;
6037;SDS011;3047;42.600;23.470;2023-04-07T01:49:15;0.90;;;0.90;;
6037;SDS011;3047;42.600;23.470;2023-04-07T01:51:42;0.50;;;0.50;;
6037;SDS011;3047;42.600;23.470;2023-04-07T01:54:14;0.60;;;0.60;;
6037;SDS011;3047;42.600;23.470;2023-04-07T01:56:41;0.70;;;0.70;;
6037;SDS011;3047;42.600;23.470;2023-04-07T01:59:07;0.50;;;0.50;;
6037;SDS011;3047;42.600;23.470;2023-04-07T02:01:34;4.47;;;1.90;;
6037;SDS011;3047;42.600;23.470;2023-04-07T02:04:04;1.13;;;1.13;;
6037;SDS011;3047;42.600;23.470;2023-04-07T02:06:37;0.73;;;0.73;;
6037;SDS011;3047;42.600;23.470;2023-04-07T02:09:09;0.57;;;0.57;;
6037;SDS011;3047;42.600;23.470;2023-04-07T02:11:36;0.53;;;0.53;;
6037;SDS011;3047;42.600;23.470;2023-04-07T02:14:05;1.30;;;1.30;;
6037;SDS011;3047;42.600;23.470;2023-04-07T02:16:34;0.73;;;0.73;;
6037;SDS011;3047;42.600;23.470;2023-04-07T02:19:03;0.57;;;0.57;;
6037;SDS011;3047;42.600;23.470;2023-04-07T02:21:30;1.20;;;1.10;;
6037;SDS011;3047;42.600;23.470;2023-04-07T02:23:59;1.10;;;1.00;;
6037;SDS011;3047;42.600;23.470;2023-04-07T02:26:26;1.00;;;1.00;;
6037;SDS011;3047;42.600;23.470;2023-04-07T02:28:53;6.00;;;1.67;;
6037;SDS011;3047;42.600;23.470;2023-04-07T02:31:20;0.80;;;0.80;;
6037;SDS011;3047;42.600;23.470;2023-04-07T02:33:47;0.80;;;0.80;;
6037;SDS011;3047;42.600;23.470;2023-04-07T02:36:15;1.70;;;1.27;;
6037;SDS011;3047;42.600;23.470;2023-04-07T02:38:41;1.30;;;1.20;;
6037;SDS011;3047;42.600;23.470;2023-04-07T02:41:08;0.83;;;0.83;;
6037;SDS011;3047;42.600;23.470;2023-04-07T02:43:35;0.57;;;0.57;;
6037;SDS011;3047;42.600;23.470;2023-04-07T02:46:01;0.63;;;0.63;;
6037;SDS011;3047;42.600;23.470;2023-04-07T02:48:28;1.00;;;1.00;;
6037;SDS011;3047;42.600;23.470;2023-04-07T02:50:55;0.80;;;0.80;;
6037;SDS011;3047;42.600;23.470;2023-04-07T02:53:23;1.47;;;1.47;;
6037;SDS011;3047;42.600;23.470;2023-04-07T02:55:49;1.30;;;1.20;;
6037;SDS011;3047;42.600;23.470;2023-04-07T02:58:16;0.50;;;0.50;;
6037;SDS011;3047;42.600;23.470;2023-04-07T03:00:43;0.60;;;0.60;;
6037;SDS011;3047;42.600;23.470;2023-04-07T03:03:09;0.57;;;0.57;;
6037;SDS011;3047;42.600;23.470;2023-04-07T03:05:36;1.10;;;1.10;;
6037;SDS011;3047;42.600;23.470;2023-04-07T03:08:03;0.70;;;0.70;;
6037;SDS011;3047;42.600;23.470;2023-04-07T03:10:31;1.10;;;1.10;;
6037;SDS011;3047;42.600;23.470;2023-04-07T03:12:58;1.63;;;1.63;;
6037;SDS011;3047;42.600;23.470;2023-04-07T03:15:25;1.60;;;1.47;;
6037;SDS011;3047;42.600;23.470;2023-04-07T03:17:51;2.90;;;1.17;;
6037;SDS011;3047;42.600;23.470;2023-04-07T03:20:18;1.17;;;0.97;;
6037;SDS011;3047;42.600;23.470;2023-04-07T03:22:45;0.93;;;0.93;;
6037;SDS011;3047;42.600;23.470;2023-04-07T03:25:12;1.90;;;1.63;;
6037;SDS011;3047;42.600;23.470;2023-04-07T03:27:40;1.67;;;1.60;;
6037;SDS011;3047;42.600;23.470;2023-04-07T03:30:07;1.00;;;1.00;;
6037;SDS011;3047;42.600;23.470;2023-04-07T03:32:34;2.03;;;1.93;;
6037;SDS011;3047;42.600;23.470;2023-04-07T03:35:01;2.63;;;2.03;;
6037;SDS011;3047;42.600;23.470;2023-04-07T03:37:28;0.90;;;0.90;;
6037;SDS011;3047;42.600;23.470;2023-04-07T03:39:54;3.80;;;1.57;;
6037;SDS011;3047;42.600;23.470;2023-04-07T03:42:21;1.50;;;1.40;;
6037;SDS011;3047;42.600;23.470;2023-04-07T03:44:49;0.70;;;0.70;;
6037;SDS011;3047;42.600;23.470;2023-04-07T03:47:16;1.33;;;1.33;;
6037;SDS011;3047;42.600;23.470;2023-04-07T03:49:43;0.90;;;0.90;;
6037;SDS011;3047;42.600;23.470;2023-04-07T03:52:09;0.47;;;0.47;;
6037;SDS011;3047;42.600;23.470;2023-04-07T03:54:36;1.40;;;1.40;;
6037;SDS011;3047;42.600;23.470;2023-04-07T03:57:03;1.03;;;1.03;;
6037;SDS011;3047;42.600;23.470;2023-04-07T03:59:29;1.07;;;1.07;;
6037;SDS011;3047;42.600;23.470;2023-04-07T04:01:58;1.00;;;1.00;;
6037;SDS011;3047;42.600;23.470;2023-04-07T04:04:25;1.00;;;1.00;;
6037;SDS011;3047;42.600;23.470;2023-04-07T04:06:51;0.73;;;0.73;;
6037;SDS011;3047;42.600;23.470;2023-04-07T04:09:18;1.37;;;1.37;;
6037;SDS011;3047;42.600;23.470;2023-04-07T04:11:45;0.77;;;0.77;;
6037;SDS011;3047;42.600;23.470;2023-04-07T04:14:12;0.90;;;0.90;;
6037;SDS011;3047;42.600;23.470;2023-04-07T04:16:38;0.70;;;0.70;;
6037;SDS011;3047;42.600;23.470;2023-04-07T04:19:06;1.40;;;1.40;;
6037;SDS011;3047;42.600;23.470;2023-04-07T04:21:33;0.87;;;0.87;;
6037;SDS011;3047;42.600;23.470;2023-04-07T04:24:00;1.67;;;0.83;;
6037;SDS011;3047;42.600;23.470;2023-04-07T04:26:28;0.73;;;0.73;;
6037;SDS011;3047;42.600;23.470;2023-04-07T04:28:54;0.70;;;0.70;;
6037;SDS011;3047;42.600;23.470;2023-04-07T04:31:21;1.30;;;1.30;;
6037;SDS011;3047;42.600;23.470;2023-04-07T04:33:48;1.37;;;1.30;;
6037;SDS011;3047;42.600;23.470;2023-04-07T04:36:16;1.10;;;1.10;;
6037;SDS011;3047;42.600;23.470;2023-04-07T04:38:43;0.73;;;0.73;;
6037;SDS011;3047;42.600;23.470;2023-04-07T04:41:10;0.93;;;0.93;;
6037;SDS011;3047;42.600;23.470;2023-04-07T04:43:36;0.83;;;0.83;;
6037;SDS011;3047;42.600;23.470;2023-04-07T04:46:03;0.60;;;0.60;;
6037;SDS011;3047;42.600;23.470;2023-04-07T04:48:30;1.00;;;1.00;;
6037;SDS011;3047;42.600;23.470;2023-04-07T04:50:56;0.97;;;0.97;;
6037;SDS011;3047;42.600;23.470;2023-04-07T04:53:24;2.07;;;1.50;;
6037;SDS011;3047;42.600;23.470;2023-04-07T04:55:51;0.97;;;0.97;;
6037;SDS011;3047;42.600;23.470;2023-04-07T04:58:19;0.70;;;0.70;;
6037;SDS011;3047;42.600;23.470;2023-04-07T05:00:46;0.80;;;0.80;;
6037;SDS011;3047;42.600;23.470;2023-04-07T05:03:12;0.53;;;0.53;;
6037;SDS011;3047;42.600;23.470;2023-04-07T05:05:39;1.73;;;1.57;;
6037;SDS011;3047;42.600;23.470;2023-04-07T05:08:07;3.67;;;1.10;;
6037;SDS011;3047;42.600;23.470;2023-04-07T05:10:38;1.23;;;1.10;;
6037;SDS011;3047;42.600;23.470;2023-04-07T05:13:05;1.30;;;1.23;;
6037;SDS011;3047;42.600;23.470;2023-04-07T05:15:32;1.10;;;1.10;;
6037;SDS011;3047;42.600;23.470;2023-04-07T05:17:58;1.20;;;1.20;;
6037;SDS011;3047;42.600;23.470;2023-04-07T05:20:25;1.03;;;1.03;;
6037;SDS011;3047;42.600;23.470;2023-04-07T05:22:52;1.73;;;1.40;;
6037;SDS011;3047;42.600;23.470;2023-04-07T05:25:18;1.30;;;1.27;;
6037;SDS011;3047;42.600;23.470;2023-04-07T05:27:46;2.50;;;2.37;;
6037;SDS011;3047;42.600;23.470;2023-04-07T05:30:13;3.10;;;2.90;;
6037;SDS011;3047;42.600;23.470;2023-04-07T05:32:40;9.20;;;4.30;;
6037;SDS011;3047;42.600;23.470;2023-04-07T05:35:07;6.53;;;2.73;;
6037;SDS011;3047;42.600;23.470;2023-04-07T05:37:35;5.83;;;2.43;;
6037;SDS011;3047;42.600;23.470;2023-04-07T05:40:01;3.63;;;3.17;;
6037;SDS011;3047;42.600;23.470;2023-04-07T05:42:28;4.47;;;3.63;;
6037;SDS011;3047;42.600;23.470;2023-04-07T05:44:56;1.33;;;1.33;;
6037;SDS011;3047;42.600;23.470;2023-04-07T05:47:23;3.53;;;1.87;;
6037;SDS011;3047;42.600;23.470;2023-04-07T05:49:49;1.17;;;1.07;;
6037;SDS011;3047;42.600;23.470;2023-04-07T05:52:16;2.00;;;1.63;;
6037;SDS011;3047;42.600;23.470;2023-04-07T05:54:43;0.80;;;0.80;;
6037;SDS011;3047;42.600;23.470;2023-04-07T05:57:10;1.33;;;1.23;;
6037;SDS011;3047;42.600;23.470;2023-04-07T05:59:36;1.60;;;1.50;;
6037;SDS011;3047;42.600;23.470;2023-04-07T06:02:04;0.90;;;0.90;;
6037;SDS011;3047;42.600;23.470;2023-04-07T06:04:31;1.07;;;1.07;;
6037;SDS011;3047;42.600;23.470;2023-04-07T06:06:59;0.67;;;0.67;;
6037;SDS011;3047;42.600;23.470;2023-04-07T06:09:26;4.00;;;1.53;;
6037;SDS011;3047;42.600;23.470;2023-04-07T06:11:52;17.83;;;1.70;;
6037;SDS011;3047;42.600;23.470;2023-04-07T06:14:20;1.17;;;1.17;;
6037;SDS011;3047;42.600;23.470;2023-04-07T06:16:47;1.07;;;1.07;;
6037;SDS011;3047;42.600;23.470;2023-04-07T06:19:15;1.77;;;1.67;;
6037;SDS011;3047;42.600;23.470;2023-04-07T06:21:42;1.30;;;1.17;;
6037;SDS011;3047;42.600;23.470;2023-04-07T06:24:09;3.90;;;1.73;;
6037;SDS011;3047;42.600;23.470;2023-04-07T06:26:36;1.30;;;1.20;;
6037;SDS011;3047;42.600;23.470;2023-04-07T06:29:04;1.17;;;1.17;;
6037;SDS011;3047;42.600;23.470;2023-04-07T06:31:31;0.80;;;0.80;;
6037;SDS011;3047;42.600;23.470;2023-04-07T06:33:57;7.47;;;1.23;;
6037;SDS011;3047;42.600;23.470;2023-04-07T06:36:26;26.23;;;2.47;;
6037;SDS011;3047;42.600;23.470;2023-04-07T06:38:53;1.40;;;1.40;;
6037;SDS011;3047;42.600;23.470;2023-04-07T06:41:19;1.67;;;1.57;;
6037;SDS011;3047;42.600;23.470;2023-04-07T06:43:47;1.77;;;1.67;;
6037;SDS011;3047;42.600;23.470;2023-04-07T06:46:15;2.67;;;2.47;;
6037;SDS011;3047;42.600;23.470;2023-04-07T06:48:42;1.57;;;1.37;;
6037;SDS011;3047;42.600;23.470;2023-04-07T06:51:08;1.43;;;1.13;;
6037;SDS011;3047;42.600;23.470;2023-04-07T06:53:37;4.63;;;1.40;;
6037;SDS011;3047;42.600;23.470;2023-04-07T06:56:05;1.20;;;1.20;;
6037;SDS011;3047;42.600;23.470;2023-04-07T06:58:32;0.77;;;0.77;;
6037;SDS011;3047;42.600;23.470;2023-04-07T07:00:59;1.07;;;1.07;;
6037;SDS011;3047;42.600;23.470;2023-04-07T07:03:26;1.40;;;1.30;;
6037;SDS011;3047;42.600;23.470;2023-04-07T07:05:53;1.40;;;1.40;;
6037;SDS011;3047;42.600;23.470;2023-04-07T07:08:21;1.17;;;1.13;;
6037;SDS011;3047;42.600;23.470;2023-04-07T07:10:49;1.30;;;1.20;;
6037;SDS011;3047;42.600;23.470;2023-04-07T07:13:16;1.03;;;1.03;;
6037;SDS011;3047;42.600;23.470;2023-04-07T07:15:43;13.30;;;1.60;;
6037;SDS011;3047;42.600;23.470;2023-04-07T07:18:10;1.00;;;1.00;;
6037;SDS011;3047;42.600;23.470;2023-04-07T07:20:37;1.53;;;1.47;;
6037;SDS011;3047;42.600;23.470;2023-04-07T07:23:04;2.57;;;1.17;;
6037;SDS011;3047;42.600;23.470;2023-04-07T07:25:30;1.60;;;1.50;;
6037;SDS011;3047;42.600;23.470;2023-04-07T07:27:59;0.83;;;0.83;;
6037;SDS011;3047;42.600;23.470;2023-04-07T07:30:25;3.60;;;2.03;;
6037;SDS011;3047;42.600;23.470;2023-04-07T07:32:52;1.37;;;1.27;;
6037;SDS011;3047;42.600;23.470;2023-04-07T07:35:20;1.47;;;1.47;;
6037;SDS011;3047;42.600;23.470;2023-04-07T07:37:49;5.40;;;0.77;;
6037;SDS011;3047;42.600;23.470;2023-04-07T07:40:16;2.07;;;1.37;;
6037;SDS011;3047;42.600;23.470;2023-04-07T07:42:43;0.80;;;0.80;;
6037;SDS011;3047;42.600;23.470;2023-04-07T07:45:12;1.07;;;1.07;;
6037;SDS011;3047;42.600;23.470;2023-04-07T07:47:38;0.90;;;0.90;;
6037;SDS011;3047;42.600;23.470;2023-04-07T07:50:06;0.77;;;0.77;;
6037;SDS011;3047;42.600;23.470;2023-04-07T07:52:32;1.40;;;1.27;;
6037;SDS011;3047;42.600;23.470;2023-04-07T07:54:59;1.60;;;1.13;;
6037;SDS011;3047;42.600;23.470;2023-04-07T07:57:26;0.57;;;0.57;;
6037;SDS011;3047;42.600;23.470;2023-04-07T07:59:52;0.90;;;0.90;;
6037;SDS011;3047;42.600;23.470;2023-04-07T08:02:21;0.97;;;0.97;;
6037;SDS011;3047;42.600;23.470;2023-04-07T08:04:50;1.03;;;1.03;;
6037;SDS011;3047;42.600;23.470;2023-04-07T08:07:17;13.57;;;4.07;;
6037;SDS011;3047;42.600;23.470;2023-04-07T08:09:43;11.07;;;5.87;;
6037;SDS011;3047;42.600;23.470;2023-04-07T08:12:10;30.77;;;8.10;;
6037;SDS011;3047;42.600;23.470;2023-04-07T08:14:37;5.83;;;2.43;;
6037;SDS011;3047;42.600;23.470;2023-04-07T08:17:03;12.77;;;4.00;;
6037;SDS011;3047;42.600;23.470;2023-04-07T08:19:31;4.60;;;2.37;;
6037;SDS011;3047;42.600;23.470;2023-04-07T08:21:58;3.33;;;2.03;;
6037;SDS011;3047;42.600;23.470;2023-04-07T08:24:25;7.93;;;2.87;;
6037;SDS011;3047;42.600;23.470;2023-04-07T08:26:53;1.27;;;1.17;;
6037;SDS011;3047;42.600;23.470;2023-04-07T08:29:21;1.13;;;1.13;;
6037;SDS011;3047;42.600;23.470;2023-04-07T08:31:47;0.77;;;0.77;;
6037;SDS011;3047;42.600;23.470;2023-04-07T08:34:14;1.17;;;1.03;;
6037;SDS011;3047;42.600;23.470;2023-04-07T08:36:42;1.77;;;1.07;;
6037;SDS011;3047;42.600;23.470;2023-04-07T08:39:09;1.40;;;1.30;;
6037;SDS011;3047;42.600;23.470;2023-04-07T08:41:36;2.10;;;1.50;;
6037;SDS011;3047;42.600;23.470;2023-04-07T08:44:03;1.23;;;1.23;;
6037;SDS011;3047;42.600;23.470;2023-04-07T08:46:32;1.70;;;1.50;;
6037;SDS011;3047;42.600;23.470;2023-04-07T08:48:59;0.80;;;0.80;;
6037;SDS011;3047;42.600;23.470;2023-04-07T08:51:27;5.83;;;2.10;;
6037;SDS011;3047;42.600;23.470;2023-04-07T08:53:59;3.33;;;2.17;;
6037;SDS011;3047;42.600;23.470;2023-04-07T08:56:31;3.00;;;1.53;;
6037;SDS011;3047;42.600;23.470;2023-04-07T08:58:58;3.70;;;1.47;;
6037;SDS011;3047;42.600;23.470;2023-04-07T09:01:25;1.10;;;1.10;;
6037;SDS011;3047;42.600;23.470;2023-04-07T09:03:53;1.00;;;1.00;;
6037;SDS011;3047;42.600;23.470;2023-04-07T09:06:22;1.23;;;1.20;;
6037;SDS011;3047;42.600;23.470;2023-04-07T09:08:49;2.10;;;1.83;;
6037;SDS011;3047;42.600;23.470;2023-04-07T09:11:17;1.30;;;1.30;;
6037;SDS011;3047;42.600;23.470;2023-04-07T09:13:44;1.37;;;1.27;;
6037;SDS011;3047;42.600;23.470;2023-04-07T09:16:11;4.77;;;1.63;;
6037;SDS011;3047;42.600;23.470;2023-04-07T09:18:38;0.67;;;0.67;;
6037;SDS011;3047;42.600;23.470;2023-04-07T09:21:06;1.67;;;1.33;;
6037;SDS011;3047;42.600;23.470;2023-04-07T09:23:35;2.47;;;2.07;;
6037;SDS011;3047;42.600;23.470;2023-04-07T09:26:18;1.53;;;1.40;;
6037;SDS011;3047;42.600;23.470;2023-04-07T09:28:47;1.30;;;1.20;;
6037;SDS011;3047;42.600;23.470;2023-04-07T09:31:16;0.80;;;0.80;;
6037;SDS011;3047;42.600;23.470;2023-04-07T09:33:43;0.70;;;0.70;;
6037;SDS011;3047;42.600;23.470;2023-04-07T09:36:10;0.87;;;0.87;;
6037;SDS011;3047;42.600;23.470;2023-04-07T09:38:38;1.93;;;1.83;;
6037;SDS011;3047;42.600;23.470;2023-04-07T09:41:06;3.30;;;1.87;;
6037;SDS011;3047;42.600;23.470;2023-04-07T09:43:36;1.63;;;1.50;;
6037;SDS011;3047;42.600;23.470;2023-04-07T09:46:08;1.00;;;1.00;;
6037;SDS011;3047;42.600;23.470;2023-04-07T09:48:36;2.00;;;1.73;;
6037;SDS011;3047;42.600;23.470;2023-04-07T09:51:04;1.63;;;1.53;;
6037;SDS011;3047;42.600;23.470;2023-04-07T09:53:40;1.37;;;1.37;;
6037;SDS011;3047;42.600;23.470;2023-04-07T09:56:08;0.70;;;0.70;;
6037;SDS011;3047;42.600;23.470;2023-04-07T09:58:37;2.03;;;1.37;;
6037;SDS011;3047;42.600;23.470;2023-04-07T10:01:06;1.70;;;1.70;;
6037;SDS011;3047;42.600;23.470;2023-04-07T10:03:33;0.80;;;0.80;;
6037;SDS011;3047;42.600;23.470;2023-04-07T10:06:01;16.80;;;1.10;;
6037;SDS011;3047;42.600;23.470;2023-04-07T10:08:32;1.03;;;1.03;;
6037;SDS011;3047;42.600;23.470;2023-04-07T10:11:00;1.77;;;1.70;;
6037;SDS011;3047;42.600;23.470;2023-04-07T10:13:28;1.27;;;1.17;;
6037;SDS011;3047;42.600;23.470;2023-04-07T10:15:57;1.23;;;1.23;;
6037;SDS011;3047;42.600;23.470;2023-04-07T10:18:25;0.67;;;0.67;;
6037;SDS011;3047;42.600;23.470;2023-04-07T10:20:55;0.83;;;0.83;;
6037;SDS011;3047;42.600;23.470;2023-04-07T10:23:24;3.30;;;1.27;;
6037;SDS011;3047;42.600;23.470;2023-04-07T10:25:54;2.37;;;1.30;;
6037;SDS011;3047;42.600;23.470;2023-04-07T10:28:23;1.57;;;1.57;;
6037;SDS011;3047;42.600;23.470;2023-04-07T10:30:52;0.83;;;0.83;;
6037;SDS011;3047;42.600;23.470;2023-04-07T10:36:11;1.20;;;1.20;;
6037;SDS011;3047;42.600;23.470;2023-04-07T10:38:38;2.77;;;2.57;;
6037;SDS011;3047;42.600;23.470;2023-04-07T10:43:57;0.97;;;0.97;;
6037;SDS011;3047;42.600;23.470;2023-04-07T10:46:24;1.03;;;1.03;;
6037;SDS011;3047;42.600;23.470;2023-04-07T10:49:08;0.90;;;0.90;;
6037;SDS011;3047;42.600;23.470;2023-04-07T10:51:35;1.77;;;1.60;;
6037;SDS011;3047;42.600;23.470;2023-04-07T10:57:08;1.27;;;1.27;;
6037;SDS011;3047;42.600;23.470;2023-04-07T10:59:38;0.70;;;0.70;;
6037;SDS011;3047;42.600;23.470;2023-04-07T11:05:01;9.83;;;2.30;;
6037;SDS011;3047;42.600;23.470;2023-04-07T11:07:43;1.87;;;1.87;;
6037;SDS011;3047;42.600;23.470;2023-04-07T11:10:15;0.97;;;0.97;;
6037;SDS011;3047;42.600;23.470;2023-04-07T11:12:43;2.27;;;2.17;;
6037;SDS011;3047;42.600;23.470;2023-04-07T11:15:17;1.47;;;1.37;;
6037;SDS011;3047;42.600;23.470;2023-04-07T11:17:46;2.10;;;1.90;;
6037;SDS011;3047;42.600;23.470;2023-04-07T11:20:14;0.90;;;0.90;;
6037;SDS011;3047;42.600;23.470;2023-04-07T11:22:41;4.27;;;1.93;;
6037;SDS011;3047;42.600;23.470;2023-04-07T11:25:20;2.00;;;1.10;;
6037;SDS011;3047;42.600;23.470;2023-04-07T11:27:47;0.87;;;0.87;;
6037;SDS011;3047;42.600;23.470;2023-04-07T11:30:14;2.77;;;1.70;;
6037;SDS011;3047;42.600;23.470;2023-04-07T11:32:46;3.57;;;2.57;;
6037;SDS011;3047;42.600;23.470;2023-04-07T11:35:16;1.90;;;1.80;;
6037;SDS011;3047;42.600;23.470;2023-04-07T11:37:43;8.07;;;2.37;;
6037;SDS011;3047;42.600;23.470;2023-04-07T11:40:10;1.47;;;1.30;;
6037;SDS011;3047;42.600;23.470;2023-04-07T11:42:38;1.30;;;1.20;;
6037;SDS011;3047;42.600;23.470;2023-04-07T11:45:06;1.00;;;1.00;;
6037;SDS011;3047;42.600;23.470;2023-04-07T11:47:42;1.60;;;1.60;;
6037;SDS011;3047;42.600;23.470;2023-04-07T11:50:09;5.03;;;1.83;;
6037;SDS011;3047;42.600;23.470;2023-04-07T11:52:43;2.17;;;2.07;;
6037;SDS011;3047;42.600;23.470;2023-04-07T11:55:17;1.57;;;1.47;;
6037;SDS011;3047;42.600;23.470;2023-04-07T11:57:45;1.03;;;1.03;;
6037;SDS011;3047;42.600;23.470;2023-04-07T12:00:13;1.33;;;1.33;;
6037;SDS011;3047;42.600;23.470;2023-04-07T12:02:40;1.13;;;1.13;;
6037;SDS011;3047;42.600;23.470;2023-04-07T12:05:07;3.57;;;2.13;;
6037;SDS011;3047;42.600;23.470;2023-04-07T12:07:35;1.60;;;1.60;;
6037;SDS011;3047;42.600;23.470;2023-04-07T12:12:57;2.07;;;1.97;;
6037;SDS011;3047;42.600;23.470;2023-04-07T12:15:26;1.07;;;1.07;;
6037;SDS011;3047;42.600;23.470;2023-04-07T12:17:53;2.83;;;1.90;;
6037;SDS011;3047;42.600;23.470;2023-04-07T12:20:19;1.03;;;1.03;;
6037;SDS011;3047;42.600;23.470;2023-04-07T12:22:46;1.27;;;1.27;;
6037;SDS011;3047;42.600;23.470;2023-04-07T12:25:13;2.17;;;2.07;;
6037;SDS011;3047;42.600;23.470;2023-04-07T12:27:39;4.27;;;2.03;;
6037;SDS011;3047;42.600;23.470;2023-04-07T12:30:08;2.43;;;1.00;;
6037;SDS011;3047;42.600;23.470;2023-04-07T12:32:35;1.40;;;1.33;;
6037;SDS011;3047;42.600;23.470;2023-04-07T12:35:02;10.07;;;3.17;;
6037;SDS011;3047;42.600;23.470;2023-04-07T12:37:30;2.33;;;1.83;;
6037;SDS011;3047;42.600;23.470;2023-04-07T12:39:57;2.57;;;2.03;;
6037;SDS011;3047;42.600;23.470;2023-04-07T12:42:23;1.20;;;1.17;;
6037;SDS011;3047;42.600;23.470;2023-04-07T12:44:51;2.13;;;1.87;;
6037;SDS011;3047;42.600;23.470;2023-04-07T12:47:19;1.10;;;1.10;;
6037;SDS011;3047;42.600;23.470;2023-04-07T12:49:46;10.30;;;2.10;;
6037;SDS011;3047;42.600;23.470;2023-04-07T12:52:12;1.40;;;1.40;;
6037;SDS011;3047;42.600;23.470;2023-04-07T12:54:39;1.60;;;1.50;;
6037;SDS011;3047;42.600;23.470;2023-04-07T12:57:07;2.37;;;1.97;;
6037;SDS011;3047;42.600;23.470;2023-04-07T12:59:34;1.77;;;1.77;;
6037;SDS011;3047;42.600;23.470;2023-04-07T13:02:01;6.27;;;2.03;;
6037;SDS011;3047;42.600;23.470;2023-04-07T13:04:29;2.07;;;1.37;;
6037;SDS011;3047;42.600;23.470;2023-04-07T13:06:56;5.10;;;2.10;;
6037;SDS011;3047;42.600;23.470;2023-04-07T13:09:23;2.53;;;2.33;;
6037;SDS011;3047;42.600;23.470;2023-04-07T13:11:50;7.07;;;3.03;;
6037;SDS011;3047;42.600;23.470;2023-04-07T13:14:17;6.37;;;3.20;;
6037;SDS011;3047;42.600;23.470;2023-04-07T13:16:43;3.13;;;2.93;;
6037;SDS011;3047;42.600;23.470;2023-04-07T13:19:10;3.10;;;3.00;;
6037;SDS011;3047;42.600;23.470;2023-04-07T13:21:38;5.07;;;2.10;;
6037;SDS011;3047;42.600;23.470;2023-04-07T13:24:05;1.80;;;1.70;;
6037;SDS011;3047;42.600;23.470;2023-04-07T13:26:32;1.47;;;1.40;;
6037;SDS011;3047;42.600;23.470;2023-04-07T13:28:58;1.20;;;1.20;;
6037;SDS011;3047;42.600;23.470;2023-04-07T13:31:25;2.27;;;2.13;;
6037;SDS011;3047;42.600;23.470;2023-04-07T13:33:52;2.83;;;2.57;;
6037;SDS011;3047;42.600;23.470;2023-04-07T13:36:19;2.47;;;2.27;;
6037;SDS011;3047;42.600;23.470;2023-04-07T13:38:47;10.20;;;2.40;;
6037;SDS011;3047;42.600;23.470;2023-04-07T13:41:14;2.67;;;2.47;;
6037;SDS011;3047;42.600;23.470;2023-04-07T13:43:40;4.13;;;2.63;;
6037;SDS011;3047;42.600;23.470;2023-04-07T13:46:07;5.80;;;2.17;;
6037;SDS011;3047;42.600;23.470;2023-04-07T13:48:39;14.50;;;3.50;;
6037;SDS011;3047;42.600;23.470;2023-04-07T13:51:06;4.90;;;2.43;;
6037;SDS011;3047;42.600;23.470;2023-04-07T13:53:32;8.63;;;2.10;;
6037;SDS011;3047;42.600;23.470;2023-04-07T13:56:01;2.23;;;2.03;;
6037;SDS011;3047;42.600;23.470;2023-04-07T13:58:30;1.83;;;1.73;;
6037;SDS011;3047;42.600;23.470;2023-04-07T14:00:56;10.17;;;3.17;;
6037;SDS011;3047;42.600;23.470;2023-04-07T14:03:23;1.87;;;1.77;;
6037;SDS011;3047;42.600;23.470;2023-04-07T14:05:50;3.60;;;3.30;;
6037;SDS011;3047;42.600;23.470;2023-04-07T14:08:16;14.53;;;4.43;;
6037;SDS011;3047;42.600;23.470;2023-04-07T14:10:43;7.30;;;2.23;;
6037;SDS011;3047;42.600;23.470;2023-04-07T14:13:11;1.83;;;1.70;;
6037;SDS011;3047;42.600;23.470;2023-04-07T14:15:38;4.57;;;1.53;;
6037;SDS011;3047;42.600;23.470;2023-04-07T14:18:05;1.63;;;1.60;;
6037;SDS011;3047;42.600;23.470;2023-04-07T14:20:32;1.53;;;1.53;;
6037;SDS011;3047;42.600;23.470;2023-04-07T14:22:58;1.23;;;1.23;;
6037;SDS011;3047;42.600;23.470;2023-04-07T14:25:25;1.23;;;1.23;;
6037;SDS011;3047;42.600;23.470;2023-04-07T14:27:52;1.47;;;1.47;;
6037;SDS011;3047;42.600;23.470;2023-04-07T14:30:20;2.87;;;2.00;;
6037;SDS011;3047;42.600;23.470;2023-04-07T14:32:47;0.87;;;0.87;;
6037;SDS011;3047;42.600;23.470;2023-04-07T14:35:14;1.10;;;1.10;;
6037;SDS011;3047;42.600;23.470;2023-04-07T14:37:40;2.57;;;1.33;;
6037;SDS011;3047;42.600;23.470;2023-04-07T14:40:07;1.77;;;1.53;;
6037;SDS011;3047;42.600;23.470;2023-04-07T14:42:34;1.63;;;1.40;;
6037;SDS011;3047;42.600;23.470;2023-04-07T14:45:01;1.33;;;1.33;;
6037;SDS011;3047;42.600;23.470;2023-04-07T14:47:30;2.37;;;1.27;;
6037;SDS011;3047;42.600;23.470;2023-04-07T14:49:56;2.83;;;2.10;;
6037;SDS011;3047;42.600;23.470;2023-04-07T14:52:23;1.37;;;1.23;;
6037;SDS011;3047;42.600;23.470;2023-04-07T14:54:50;1.00;;;1.00;;
6037;SDS011;3047;42.600;23.470;2023-04-07T14:57:16;1.10;;;1.10;;
6037;SDS011;3047;42.600;23.470;2023-04-07T14:59:43;2.20;;;2.10;;
6037;SDS011;3047;42.600;23.470;2023-04-07T15:02:11;3.47;;;1.50;;
6037;SDS011;3047;42.600;23.470;2023-04-07T15:04:39;1.70;;;1.60;;
6037;SDS011;3047;42.600;23.470;2023-04-07T15:07:05;3.30;;;1.60;;
6037;SDS011;3047;42.600;23.470;2023-04-07T15:09:32;1.83;;;1.73;;
6037;SDS011;3047;42.600;23.470;2023-04-07T15:11:59;3.80;;;1.40;;
6037;SDS011;3047;42.600;23.470;2023-04-07T15:14:26;5.83;;;1.30;;
6037;SDS011;3047;42.600;23.470;2023-04-07T15:16:53;1.07;;;1.07;;
6037;SDS011;3047;42.600;23.470;2023-04-07T15:19:19;1.00;;;1.00;;
6037;SDS011;3047;42.600;23.470;2023-04-07T15:21:47;1.20;;;1.10;;